sensor_id;sensor_type;location;lat;lon;timestamp;pressure;altitude;pressure_sealevel;temperature;humidity
8075;BME280;4080;42.676;23.372;2022-10-16T00:01:15;95738.84;;;10.04;100.00
8075;BME280;4080;42.676;23.372;2022-10-16T00:03:43;95744.97;;;10.09;100.00
8075;BME280;4080;42.676;23.372;2022-10-16T00:06:10;95757.56;;;10.02;100.00
8075;BME280;4080;42.676;23.372;2022-10-16T00:08:38;95748.78;;;9.96;100.00
8075;BME280;4080;42.676;23.372;2022-10-16T00:11:08;95745.84;;;9.93;100.00
8075;BME280;4080;42.676;23.372;2022-10-16T00:13:37;95754.06;;;9.96;100.00
8075;BME280;4080;42.676;23.372;2022-10-16T00:16:05;95754.56;;;9.93;100.00
8075;BME280;4080;42.676;23.372;2022-10-16T00:18:32;95756.66;;;9.91;100.00
8075;BME280;4080;42.676;23.372;2022-10-16T00:21:02;95760.13;;;9.97;100.00
8075;BME280;4080;42.676;23.372;2022-10-16T00:23:30;95766.00;;;10.04;100.00
8075;BME280;4080;42.676;23.372;2022-10-16T00:25:59;95762.97;;;10.12;100.00
8075;BME280;4080;42.676;23.372;2022-10-16T00:28:28;95756.97;;;10.17;100.00
8075;BME280;4080;42.676;23.372;2022-10-16T00:30:55;95754.06;;;10.18;100.00
8075;BME280;4080;42.676;23.372;2022-10-16T00:33:22;95770.56;;;10.31;100.00
8075;BME280;4080;42.676;23.372;2022-10-16T00:35:48;95769.03;;;10.35;100.00
8075;BME280;4080;42.676;23.372;2022-10-16T00:38:15;95773.81;;;10.38;100.00
8075;BME280;4080;42.676;23.372;2022-10-16T00:40:42;95779.09;;;10.38;100.00
8075;BME280;4080;42.676;23.372;2022-10-16T00:43:13;95714.28;;;9.98;100.00
8075;BME280;4080;42.676;23.372;2022-10-16T00:45:41;95771.41;;;10.36;100.00
8075;BME280;4080;42.676;23.372;2022-10-16T00:48:11;95762.91;;;10.29;100.00
8075;BME280;4080;42.676;23.372;2022-10-16T00:50:40;95766.94;;;10.37;100.00
8075;BME280;4080;42.676;23.372;2022-10-16T00:53:10;95766.66;;;10.33;100.00
8075;BME280;4080;42.676;23.372;2022-10-16T00:55:37;95771.56;;;10.24;100.00
8075;BME280;4080;42.676;23.372;2022-10-16T00:58:04;95758.16;;;10.09;100.00
8075;BME280;4080;42.676;23.372;2022-10-16T01:00:31;95763.19;;;9.89;100.00
8075;BME280;4080;42.676;23.372;2022-10-16T01:03:01;95771.94;;;9.73;100.00
8075;BME280;4080;42.676;23.372;2022-10-16T01:05:33;95773.88;;;9.60;100.00
8075;BME280;4080;42.676;23.372;2022-10-16T01:08:08;95773.66;;;9.45;100.00
8075;BME280;4080;42.676;23.372;2022-10-16T01:10:41;95779.34;;;9.37;100.00
8075;BME280;4080;42.676;23.372;2022-10-16T01:13:13;95780.31;;;9.31;100.00
8075;BME280;4080;42.676;23.372;2022-10-16T01:15:47;95777.28;;;9.22;100.00
8075;BME280;4080;42.676;23.372;2022-10-16T01:18:23;95773.19;;;9.15;100.00
8075;BME280;4080;42.676;23.372;2022-10-16T01:20:59;95766.75;;;9.06;100.00
8075;BME280;4080;42.676;23.372;2022-10-16T01:23:36;95765.06;;;8.99;100.00
8075;BME280;4080;42.676;23.372;2022-10-16T01:26:14;95761.25;;;8.90;100.00
8075;BME280;4080;42.676;23.372;2022-10-16T01:28:49;95759.47;;;8.79;100.00
8075;BME280;4080;42.676;23.372;2022-10-16T01:31:19;95748.53;;;8.70;100.00
8075;BME280;4080;42.676;23.372;2022-10-16T01:33:52;95756.44;;;8.70;100.00
8075;BME280;4080;42.676;23.372;2022-10-16T01:36:26;95758.03;;;8.71;100.00
8075;BME280;4080;42.676;23.372;2022-10-16T01:38:56;95755.22;;;8.78;100.00
8075;BME280;4080;42.676;23.372;2022-10-16T01:41:28;95752.00;;;8.88;100.00
8075;BME280;4080;42.676;23.372;2022-10-16T01:44:02;95759.72;;;8.94;100.00
8075;BME280;4080;42.676;23.372;2022-10-16T01:46:32;95750.78;;;8.95;100.00
8075;BME280;4080;42.676;23.372;2022-10-16T01:49:02;95768.34;;;9.07;100.00
8075;BME280;4080;42.676;23.372;2022-10-16T01:51:29;95774.72;;;9.11;100.00
8075;BME280;4080;42.676;23.372;2022-10-16T01:53:59;95769.53;;;9.16;100.00
8075;BME280;4080;42.676;23.372;2022-10-16T01:56:27;95776.38;;;9.17;100.00
8075;BME280;4080;42.676;23.372;2022-10-16T01:58:59;95768.88;;;9.09;100.00
8075;BME280;4080;42.676;23.372;2022-10-16T02:01:28;95782.69;;;9.16;100.00
8075;BME280;4080;42.676;23.372;2022-10-16T02:03:59;95777.41;;;9.16;100.00
8075;BME280;4080;42.676;23.372;2022-10-16T02:06:28;95783.47;;;9.16;100.00
8075;BME280;4080;42.676;23.372;2022-10-16T02:08:55;95789.53;;;9.17;100.00
8075;BME280;4080;42.676;23.372;2022-10-16T02:11:22;95781.88;;;9.15;100.00
8075;BME280;4080;42.676;23.372;2022-10-16T02:13:52;95787.72;;;9.17;100.00
8075;BME280;4080;42.676;23.372;2022-10-16T02:16:32;95783.56;;;9.05;100.00
8075;BME280;4080;42.676;23.372;2022-10-16T02:18:59;95791.78;;;9.08;100.00
8075;BME280;4080;42.676;23.372;2022-10-16T02:21:28;95797.28;;;9.07;100.00
8075;BME280;4080;42.676;23.372;2022-10-16T02:23:59;95797.19;;;9.01;100.00
8075;BME280;4080;42.676;23.372;2022-10-16T02:26:33;95803.19;;;8.97;100.00
8075;BME280;4080;42.676;23.372;2022-10-16T02:29:06;95798.16;;;8.95;100.00
8075;BME280;4080;42.676;23.372;2022-10-16T02:31:38;95799.19;;;8.94;100.00
8075;BME280;4080;42.676;23.372;2022-10-16T02:34:08;95808.69;;;8.95;100.00
8075;BME280;4080;42.676;23.372;2022-10-16T02:36:38;95803.66;;;8.94;100.00
8075;BME280;4080;42.676;23.372;2022-10-16T02:39:06;95805.50;;;8.93;100.00
8075;BME280;4080;42.676;23.372;2022-10-16T02:41:33;95804.94;;;8.91;100.00
8075;BME280;4080;42.676;23.372;2022-10-16T02:44:00;95799.91;;;8.90;100.00
8075;BME280;4080;42.676;23.372;2022-10-16T02:46:26;95810.09;;;8.86;100.00
8075;BME280;4080;42.676;23.372;2022-10-16T02:48:55;95805.78;;;8.80;100.00
8075;BME280;4080;42.676;23.372;2022-10-16T02:51:21;95812.06;;;8.79;100.00
8075;BME280;4080;42.676;23.372;2022-10-16T02:53:48;95811.50;;;8.77;100.00
8075;BME280;4080;42.676;23.372;2022-10-16T02:56:15;95813.81;;;8.74;100.00
8075;BME280;4080;42.676;23.372;2022-10-16T02:58:41;95816.13;;;8.70;100.00
8075;BME280;4080;42.676;23.372;2022-10-16T03:01:08;95826.41;;;8.71;100.00
8075;BME280;4080;42.676;23.372;2022-10-16T03:03:35;95825.63;;;8.71;100.00
8075;BME280;4080;42.676;23.372;2022-10-16T03:06:03;95827.69;;;8.69;100.00
8075;BME280;4080;42.676;23.372;2022-10-16T03:08:31;95822.81;;;8.61;100.00
8075;BME280;4080;42.676;23.372;2022-10-16T03:10:57;95709.22;;;7.78;100.00
8075;BME280;4080;42.676;23.372;2022-10-16T03:13:24;95816.69;;;8.44;100.00
8075;BME280;4080;42.676;23.372;2022-10-16T03:15:51;95824.47;;;8.38;100.00
8075;BME280;4080;42.676;23.372;2022-10-16T03:18:18;95829.03;;;8.31;100.00
8075;BME280;4080;42.676;23.372;2022-10-16T03:20:44;95815.78;;;8.26;100.00
8075;BME280;4080;42.676;23.372;2022-10-16T03:23:13;95836.34;;;8.41;100.00
8075;BME280;4080;42.676;23.372;2022-10-16T03:25:39;95830.38;;;8.46;100.00
8075;BME280;4080;42.676;23.372;2022-10-16T03:28:06;95831.34;;;8.39;100.00
8075;BME280;4080;42.676;23.372;2022-10-16T03:30:33;95776.09;;;7.99;100.00
8075;BME280;4080;42.676;23.372;2022-10-16T03:33:00;95832.13;;;8.28;100.00
8075;BME280;4080;42.676;23.372;2022-10-16T03:35:27;95830.63;;;8.32;100.00
8075;BME280;4080;42.676;23.372;2022-10-16T03:37:53;95824.38;;;8.33;100.00
8075;BME280;4080;42.676;23.372;2022-10-16T03:40:21;95835.00;;;8.38;100.00
8075;BME280;4080;42.676;23.372;2022-10-16T03:42:48;95831.34;;;8.39;100.00
8075;BME280;4080;42.676;23.372;2022-10-16T03:45:15;95836.69;;;8.45;100.00
8075;BME280;4080;42.676;23.372;2022-10-16T03:47:42;95834.28;;;8.43;100.00
8075;BME280;4080;42.676;23.372;2022-10-16T03:50:09;95831.22;;;8.34;100.00
8075;BME280;4080;42.676;23.372;2022-10-16T03:52:36;95819.09;;;8.22;100.00
8075;BME280;4080;42.676;23.372;2022-10-16T03:55:02;95832.94;;;8.29;100.00
8075;BME280;4080;42.676;23.372;2022-10-16T03:57:31;95825.38;;;8.32;100.00
8075;BME280;4080;42.676;23.372;2022-10-16T03:59:57;95825.50;;;8.37;100.00
8075;BME280;4080;42.676;23.372;2022-10-16T04:02:24;95823.44;;;8.39;100.00
8075;BME280;4080;42.676;23.372;2022-10-16T04:04:51;95812.84;;;8.34;100.00
8075;BME280;4080;42.676;23.372;2022-10-16T04:07:18;95825.59;;;8.43;100.00
8075;BME280;4080;42.676;23.372;2022-10-16T04:09:44;95824.00;;;8.42;100.00
8075;BME280;4080;42.676;23.372;2022-10-16T04:12:11;95828.22;;;8.43;100.00
8075;BME280;4080;42.676;23.372;2022-10-16T04:14:39;95831.44;;;8.45;100.00
8075;BME280;4080;42.676;23.372;2022-10-16T04:17:06;95830.38;;;8.46;100.00
8075;BME280;4080;42.676;23.372;2022-10-16T04:19:33;95830.38;;;8.46;100.00
8075;BME280;4080;42.676;23.372;2022-10-16T04:21:59;95840.91;;;8.46;100.00
8075;BME280;4080;42.676;23.372;2022-10-16T04:24:26;95837.72;;;8.44;100.00
8075;BME280;4080;42.676;23.372;2022-10-16T04:26:53;95832.94;;;8.40;100.00
8075;BME280;4080;42.676;23.372;2022-10-16T04:29:20;95828.94;;;8.38;100.00
8075;BME280;4080;42.676;23.372;2022-10-16T04:31:48;95793.91;;;8.09;100.00
8075;BME280;4080;42.676;23.372;2022-10-16T04:34:14;95840.34;;;8.32;100.00
8075;BME280;4080;42.676;23.372;2022-10-16T04:36:41;95837.16;;;8.30;100.00
8075;BME280;4080;42.676;23.372;2022-10-16T04:39:08;95839.00;;;8.29;100.00
8075;BME280;4080;42.676;23.372;2022-10-16T04:41:35;95738.03;;;7.62;100.00
8075;BME280;4080;42.676;23.372;2022-10-16T04:44:01;95842.19;;;8.31;100.00
8075;BME280;4080;42.676;23.372;2022-10-16T04:46:28;95855.00;;;8.39;100.00
8075;BME280;4080;42.676;23.372;2022-10-16T04:48:56;95857.81;;;8.50;100.00
8075;BME280;4080;42.676;23.372;2022-10-16T04:51:23;95855.97;;;8.62;100.00
8075;BME280;4080;42.676;23.372;2022-10-16T04:53:51;95845.25;;;8.80;100.00
8075;BME280;4080;42.676;23.372;2022-10-16T04:56:17;95864.47;;;9.26;100.00
8075;BME280;4080;42.676;23.372;2022-10-16T04:58:44;95862.00;;;9.53;100.00
8075;BME280;4080;42.676;23.372;2022-10-16T05:01:11;95876.44;;;9.84;100.00
8075;BME280;4080;42.676;23.372;2022-10-16T05:03:38;95874.94;;;10.26;100.00
8075;BME280;4080;42.676;23.372;2022-10-16T05:06:06;95823.06;;;10.32;100.00
8075;BME280;4080;42.676;23.372;2022-10-16T05:08:34;95889.41;;;11.11;100.00
8075;BME280;4080;42.676;23.372;2022-10-16T05:11:01;95835.84;;;11.16;100.00
8075;BME280;4080;42.676;23.372;2022-10-16T05:13:27;95896.66;;;11.85;100.00
8075;BME280;4080;42.676;23.372;2022-10-16T05:15:54;95900.03;;;12.18;100.00
8075;BME280;4080;42.676;23.372;2022-10-16T05:18:22;95901.28;;;12.47;100.00
8075;BME280;4080;42.676;23.372;2022-10-16T05:20:49;95905.34;;;12.70;100.00
8075;BME280;4080;42.676;23.372;2022-10-16T05:23:17;95908.28;;;12.73;100.00
8075;BME280;4080;42.676;23.372;2022-10-16T05:25:52;95910.41;;;12.77;100.00
8075;BME280;4080;42.676;23.372;2022-10-16T05:28:18;95923.47;;;12.98;100.00
8075;BME280;4080;42.676;23.372;2022-10-16T05:30:45;95909.97;;;13.10;100.00
8075;BME280;4080;42.676;23.372;2022-10-16T05:33:12;95912.97;;;13.29;100.00
8075;BME280;4080;42.676;23.372;2022-10-16T05:35:38;95902.91;;;13.41;100.00
8075;BME280;4080;42.676;23.372;2022-10-16T05:38:05;95913.03;;;13.64;100.00
8075;BME280;4080;42.676;23.372;2022-10-16T05:40:33;95921.78;;;13.55;100.00
8075;BME280;4080;42.676;23.372;2022-10-16T05:43:00;95909.84;;;13.52;100.00
8075;BME280;4080;42.676;23.372;2022-10-16T05:45:27;95920.72;;;13.71;100.00
8075;BME280;4080;42.676;23.372;2022-10-16T05:47:53;95925.50;;;13.89;100.00
8075;BME280;4080;42.676;23.372;2022-10-16T05:50:20;95936.09;;;14.05;100.00
8075;BME280;4080;42.676;23.372;2022-10-16T05:52:47;95927.59;;;14.13;100.00
8075;BME280;4080;42.676;23.372;2022-10-16T05:55:14;95931.56;;;14.25;100.00
8075;BME280;4080;42.676;23.372;2022-10-16T05:57:42;95936.59;;;14.42;100.00
8075;BME280;4080;42.676;23.372;2022-10-16T06:00:10;95945.31;;;14.58;100.00
8075;BME280;4080;42.676;23.372;2022-10-16T06:02:37;95950.34;;;14.75;100.00
8075;BME280;4080;42.676;23.372;2022-10-16T06:05:04;95957.19;;;14.86;100.00
8075;BME280;4080;42.676;23.372;2022-10-16T06:07:34;95931.16;;;14.88;100.00
8075;BME280;4080;42.676;23.372;2022-10-16T06:10:01;95952.84;;;15.15;100.00
8075;BME280;4080;42.676;23.372;2022-10-16T06:12:28;95960.75;;;15.31;100.00
8075;BME280;4080;42.676;23.372;2022-10-16T06:14:56;95958.25;;;15.44;100.00
8075;BME280;4080;42.676;23.372;2022-10-16T06:17:22;95962.50;;;15.45;100.00
8075;BME280;4080;42.676;23.372;2022-10-16T06:19:49;95966.69;;;15.57;100.00
8075;BME280;4080;42.676;23.372;2022-10-16T06:22:16;95976.53;;;15.66;100.00
8075;BME280;4080;42.676;23.372;2022-10-16T06:24:43;95976.91;;;15.83;100.00
8075;BME280;4080;42.676;23.372;2022-10-16T06:27:09;95977.38;;;15.96;100.00
8075;BME280;4080;42.676;23.372;2022-10-16T06:29:36;95981.00;;;16.10;100.00
8075;BME280;4080;42.676;23.372;2022-10-16T06:32:04;95981.94;;;16.24;100.00
8075;BME280;4080;42.676;23.372;2022-10-16T06:34:31;95988.22;;;16.38;100.00
8075;BME280;4080;42.676;23.372;2022-10-16T06:36:57;95988.66;;;16.45;100.00
8075;BME280;4080;42.676;23.372;2022-10-16T06:39:24;95984.00;;;16.61;100.00
8075;BME280;4080;42.676;23.372;2022-10-16T06:41:51;95995.25;;;16.82;100.00
8075;BME280;4080;42.676;23.372;2022-10-16T06:44:17;95996.13;;;17.01;100.00
8075;BME280;4080;42.676;23.372;2022-10-16T06:46:44;96001.28;;;17.17;98.56
8075;BME280;4080;42.676;23.372;2022-10-16T06:49:12;96006.50;;;17.27;97.61
8075;BME280;4080;42.676;23.372;2022-10-16T06:51:46;96004.56;;;17.32;98.49
8075;BME280;4080;42.676;23.372;2022-10-16T06:54:14;96013.56;;;17.36;99.03
8075;BME280;4080;42.676;23.372;2022-10-16T07:00:04;96010.59;;;17.62;98.20
8075;BME280;4080;42.676;23.372;2022-10-16T07:02:31;96016.03;;;17.76;96.67
8075;BME280;4080;42.676;23.372;2022-10-16T07:04:59;96016.31;;;17.93;95.42
8075;BME280;4080;42.676;23.372;2022-10-16T07:07:26;96018.31;;;18.01;94.75
8075;BME280;4080;42.676;23.372;2022-10-16T07:09:53;96016.22;;;18.17;95.09
8075;BME280;4080;42.676;23.372;2022-10-16T07:12:19;96016.84;;;18.27;93.21
8075;BME280;4080;42.676;23.372;2022-10-16T07:14:46;96021.00;;;18.20;92.45
8075;BME280;4080;42.676;23.372;2022-10-16T07:17:13;96016.16;;;18.03;94.63
8075;BME280;4080;42.676;23.372;2022-10-16T07:19:39;96022.44;;;18.12;94.96
8075;BME280;4080;42.676;23.372;2022-10-16T07:22:07;96023.50;;;18.30;95.07
8075;BME280;4080;42.676;23.372;2022-10-16T07:24:34;96023.97;;;18.51;93.15
8075;BME280;4080;42.676;23.372;2022-10-16T07:27:01;96024.88;;;18.60;92.11
8075;BME280;4080;42.676;23.372;2022-10-16T07:29:28;96030.09;;;18.70;92.17
8075;BME280;4080;42.676;23.372;2022-10-16T07:31:54;96029.50;;;18.73;92.17
8075;BME280;4080;42.676;23.372;2022-10-16T07:34:21;96034.66;;;18.83;91.43
8075;BME280;4080;42.676;23.372;2022-10-16T07:36:48;96029.22;;;18.88;90.88
8075;BME280;4080;42.676;23.372;2022-10-16T07:39:17;95901.69;;;18.15;90.77
8075;BME280;4080;42.676;23.372;2022-10-16T07:41:44;96036.47;;;19.02;90.81
8075;BME280;4080;42.676;23.372;2022-10-16T07:44:11;96028.84;;;19.22;91.66
8075;BME280;4080;42.676;23.372;2022-10-16T07:46:38;96034.19;;;19.36;89.46
8075;BME280;4080;42.676;23.372;2022-10-16T07:49:04;96029.84;;;19.40;89.32
8075;BME280;4080;42.676;23.372;2022-10-16T07:51:31;96029.84;;;19.40;88.12
8075;BME280;4080;42.676;23.372;2022-10-16T07:53:58;96032.13;;;19.33;87.55
8075;BME280;4080;42.676;23.372;2022-10-16T07:56:26;96022.19;;;19.20;91.18
8075;BME280;4080;42.676;23.372;2022-10-16T07:58:53;96036.06;;;19.22;92.40
8075;BME280;4080;42.676;23.372;2022-10-16T08:01:21;96035.47;;;19.52;90.76
8075;BME280;4080;42.676;23.372;2022-10-16T08:03:49;96029.72;;;19.73;88.72
8075;BME280;4080;42.676;23.372;2022-10-16T08:06:17;96026.75;;;20.10;86.77
8075;BME280;4080;42.676;23.372;2022-10-16T08:08:44;96041.88;;;20.29;85.82
8075;BME280;4080;42.676;23.372;2022-10-16T08:11:11;96042.91;;;20.41;84.58
8075;BME280;4080;42.676;23.372;2022-10-16T08:13:39;96037.63;;;20.50;82.12
8075;BME280;4080;42.676;23.372;2022-10-16T08:16:06;96038.22;;;20.69;82.67
8075;BME280;4080;42.676;23.372;2022-10-16T08:18:35;96042.91;;;20.86;86.10
8075;BME280;4080;42.676;23.372;2022-10-16T08:21:02;96035.63;;;21.18;89.13
8075;BME280;4080;42.676;23.372;2022-10-16T08:23:29;96041.91;;;21.44;83.74
8075;BME280;4080;42.676;23.372;2022-10-16T08:26:03;96031.41;;;21.25;82.13
8075;BME280;4080;42.676;23.372;2022-10-16T08:28:31;96025.13;;;21.38;83.89
8075;BME280;4080;42.676;23.372;2022-10-16T08:31:06;96030.72;;;21.51;80.11
8075;BME280;4080;42.676;23.372;2022-10-16T08:33:33;96025.66;;;21.49;78.28
8075;BME280;4080;42.676;23.372;2022-10-16T08:36:01;96004.13;;;21.41;75.85
8075;BME280;4080;42.676;23.372;2022-10-16T08:38:28;96026.94;;;21.52;79.06
8075;BME280;4080;42.676;23.372;2022-10-16T08:41:09;96019.66;;;21.44;77.02
8075;BME280;4080;42.676;23.372;2022-10-16T08:43:53;96024.88;;;21.66;76.94
8075;BME280;4080;42.676;23.372;2022-10-16T08:46:36;96030.47;;;21.78;76.08
8075;BME280;4080;42.676;23.372;2022-10-16T08:49:11;96027.13;;;21.81;75.86
8075;BME280;4080;42.676;23.372;2022-10-16T08:51:39;96028.56;;;21.79;73.45
8075;BME280;4080;42.676;23.372;2022-10-16T08:54:15;96030.00;;;21.93;73.08
8075;BME280;4080;42.676;23.372;2022-10-16T08:56:46;96031.56;;;22.03;71.58
8075;BME280;4080;42.676;23.372;2022-10-16T08:59:14;96021.66;;;22.21;72.77
8075;BME280;4080;42.676;23.372;2022-10-16T09:01:45;96035.56;;;22.40;68.56
8075;BME280;4080;42.676;23.372;2022-10-16T09:04:48;96033.34;;;22.51;66.55
8075;BME280;4080;42.676;23.372;2022-10-16T09:07:22;96036.63;;;22.74;65.49
8075;BME280;4080;42.676;23.372;2022-10-16T09:10:00;96034.06;;;22.86;63.08
8075;BME280;4080;42.676;23.372;2022-10-16T09:12:33;96022.69;;;22.72;64.01
8075;BME280;4080;42.676;23.372;2022-10-16T09:15:14;96025.91;;;22.48;63.52
8075;BME280;4080;42.676;23.372;2022-10-16T09:17:52;96023.66;;;22.58;66.26
8075;BME280;4080;42.676;23.372;2022-10-16T09:20:30;96018.91;;;22.81;67.53
8075;BME280;4080;42.676;23.372;2022-10-16T09:23:10;96016.22;;;23.19;66.59
8075;BME280;4080;42.676;23.372;2022-10-16T09:25:39;96027.47;;;23.21;64.20
8075;BME280;4080;42.676;23.372;2022-10-16T09:28:08;96028.00;;;23.06;68.06
8075;BME280;4080;42.676;23.372;2022-10-16T09:30:37;95957.84;;;22.65;64.94
8075;BME280;4080;42.676;23.372;2022-10-16T09:33:05;96020.03;;;23.18;61.33
8075;BME280;4080;42.676;23.372;2022-10-16T09:35:36;96025.41;;;23.18;63.51
8075;BME280;4080;42.676;23.372;2022-10-16T09:38:04;96019.16;;;23.06;60.34
8075;BME280;4080;42.676;23.372;2022-10-16T09:40:32;96019.84;;;22.77;61.45
8075;BME280;4080;42.676;23.372;2022-10-16T09:43:15;96014.81;;;22.67;62.52
8075;BME280;4080;42.676;23.372;2022-10-16T09:45:54;96005.78;;;22.71;60.40
8075;BME280;4080;42.676;23.372;2022-10-16T09:48:23;96011.25;;;22.92;62.38
8075;BME280;4080;42.676;23.372;2022-10-16T09:50:59;95996.03;;;23.05;62.15
8075;BME280;4080;42.676;23.372;2022-10-16T09:53:37;96009.13;;;23.15;60.61
8075;BME280;4080;42.676;23.372;2022-10-16T09:56:05;96008.94;;;23.20;59.45
8075;BME280;4080;42.676;23.372;2022-10-16T09:58:32;96000.78;;;23.08;59.19
8075;BME280;4080;42.676;23.372;2022-10-16T10:00:59;96010.00;;;22.89;59.67
8075;BME280;4080;42.676;23.372;2022-10-16T10:03:36;96005.91;;;22.83;57.75
8075;BME280;4080;42.676;23.372;2022-10-16T10:06:14;95934.69;;;22.25;56.60
8075;BME280;4080;42.676;23.372;2022-10-16T10:08:53;95986.47;;;22.69;56.83
8075;BME280;4080;42.676;23.372;2022-10-16T10:11:39;95997.66;;;22.97;55.95
8075;BME280;4080;42.676;23.372;2022-10-16T10:16:38;95988.25;;;23.41;56.30
8075;BME280;4080;42.676;23.372;2022-10-16T10:19:13;95987.28;;;23.16;57.21
8075;BME280;4080;42.676;23.372;2022-10-16T10:21:41;95990.34;;;23.06;53.05
8075;BME280;4080;42.676;23.372;2022-10-16T10:24:10;95982.25;;;23.06;54.80
8075;BME280;4080;42.676;23.372;2022-10-16T10:26:38;95984.94;;;23.06;55.47
8075;BME280;4080;42.676;23.372;2022-10-16T10:29:12;95986.06;;;23.05;54.46
8075;BME280;4080;42.676;23.372;2022-10-16T10:31:48;95982.44;;;23.01;54.41
8075;BME280;4080;42.676;23.372;2022-10-16T10:34:30;95985.28;;;23.05;56.09
8075;BME280;4080;42.676;23.372;2022-10-16T10:37:05;95967.97;;;23.14;56.84
8075;BME280;4080;42.676;23.372;2022-10-16T10:39:39;95970.28;;;23.24;57.35
8075;BME280;4080;42.676;23.372;2022-10-16T10:42:19;95972.97;;;23.24;57.20
8075;BME280;4080;42.676;23.372;2022-10-16T10:45:12;95967.69;;;23.07;57.77
8075;BME280;4080;42.676;23.372;2022-10-16T10:47:47;95958.56;;;22.91;57.81
8075;BME280;4080;42.676;23.372;2022-10-16T10:50:23;95963.31;;;22.94;58.52
8075;BME280;4080;42.676;23.372;2022-10-16T10:52:59;95954.31;;;23.19;58.42
8075;BME280;4080;42.676;23.372;2022-10-16T10:55:36;95957.84;;;23.41;58.26
8075;BME280;4080;42.676;23.372;2022-10-16T10:58:27;95952.78;;;23.39;57.68
8075;BME280;4080;42.676;23.372;2022-10-16T11:01:06;95953.00;;;23.55;58.75
8075;BME280;4080;42.676;23.372;2022-10-16T11:03:46;95949.84;;;23.53;57.79
8075;BME280;4080;42.676;23.372;2022-10-16T11:06:20;95930.59;;;23.42;55.55
8075;BME280;4080;42.676;23.372;2022-10-16T11:08:52;95942.94;;;23.43;55.13
8075;BME280;4080;42.676;23.372;2022-10-16T11:11:24;95936.56;;;23.48;57.17
8075;BME280;4080;42.676;23.372;2022-10-16T11:13:55;95944.13;;;23.34;56.26
8075;BME280;4080;42.676;23.372;2022-10-16T11:16:27;95935.06;;;23.09;55.16
8075;BME280;4080;42.676;23.372;2022-10-16T11:18:58;95935.47;;;22.90;56.80
8075;BME280;4080;42.676;23.372;2022-10-16T11:21:31;95933.88;;;22.89;55.45
8075;BME280;4080;42.676;23.372;2022-10-16T11:24:06;95937.09;;;22.74;57.39
8075;BME280;4080;42.676;23.372;2022-10-16T11:26:41;95935.66;;;22.76;57.84
8075;BME280;4080;42.676;23.372;2022-10-16T11:29:14;95928.81;;;22.96;58.89
8075;BME280;4080;42.676;23.372;2022-10-16T11:31:48;95925.28;;;23.04;59.59
8075;BME280;4080;42.676;23.372;2022-10-16T11:34:21;95923.94;;;23.19;58.73
8075;BME280;4080;42.676;23.372;2022-10-16T11:36:53;95935.47;;;22.90;55.09
8075;BME280;4080;42.676;23.372;2022-10-16T11:39:25;95929.63;;;22.41;56.18
8075;BME280;4080;42.676;23.372;2022-10-16T11:41:55;95930.44;;;21.98;60.09
8075;BME280;4080;42.676;23.372;2022-10-16T11:44:36;95925.06;;;21.73;60.04
8075;BME280;4080;42.676;23.372;2022-10-16T11:47:12;95875.63;;;21.30;62.18
8075;BME280;4080;42.676;23.372;2022-10-16T11:49:43;95911.63;;;21.38;61.66
8075;BME280;4080;42.676;23.372;2022-10-16T11:52:19;95914.13;;;21.26;62.57
8075;BME280;4080;42.676;23.372;2022-10-16T11:54:51;95925.03;;;21.38;63.30
8075;BME280;4080;42.676;23.372;2022-10-16T11:57:23;95925.19;;;21.33;62.60
8075;BME280;4080;42.676;23.372;2022-10-16T11:59:55;95927.56;;;21.26;62.19
8075;BME280;4080;42.676;23.372;2022-10-16T12:02:38;95924.53;;;21.19;62.67
8075;BME280;4080;42.676;23.372;2022-10-16T12:05:18;95929.94;;;21.27;63.25
8075;BME280;4080;42.676;23.372;2022-10-16T12:07:57;95923.72;;;21.18;63.55
8075;BME280;4080;42.676;23.372;2022-10-16T12:10:29;95926.41;;;21.18;66.34
8075;BME280;4080;42.676;23.372;2022-10-16T12:12:57;95918.50;;;21.13;64.33
8075;BME280;4080;42.676;23.372;2022-10-16T12:15:26;95910.25;;;20.92;63.67
8075;BME280;4080;42.676;23.372;2022-10-16T12:17:53;95927.91;;;20.93;64.88
8075;BME280;4080;42.676;23.372;2022-10-16T12:20:24;95916.38;;;20.84;64.16
8075;BME280;4080;42.676;23.372;2022-10-16T12:22:55;95923.75;;;20.78;63.83
8075;BME280;4080;42.676;23.372;2022-10-16T12:25:26;95903.03;;;20.62;65.33
8075;BME280;4080;42.676;23.372;2022-10-16T12:27:59;95908.91;;;20.72;64.29
8075;BME280;4080;42.676;23.372;2022-10-16T12:30:29;95922.06;;;20.91;64.87
8075;BME280;4080;42.676;23.372;2022-10-16T12:32:58;95912.63;;;21.02;62.43
8075;BME280;4080;42.676;23.372;2022-10-16T12:35:28;95927.63;;;21.03;61.89
8075;BME280;4080;42.676;23.372;2022-10-16T12:38:07;95921.91;;;20.88;62.99
8075;BME280;4080;42.676;23.372;2022-10-16T12:40:37;95930.09;;;20.83;65.39
8075;BME280;4080;42.676;23.372;2022-10-16T12:43:26;95923.75;;;20.78;64.85
8075;BME280;4080;42.676;23.372;2022-10-16T12:46:02;95918.03;;;20.63;65.30
8075;BME280;4080;42.676;23.372;2022-10-16T12:48:29;95928.72;;;20.54;65.89
8075;BME280;4080;42.676;23.372;2022-10-16T12:50:56;95907.16;;;20.37;66.93
8075;BME280;4080;42.676;23.372;2022-10-16T12:53:25;95927.44;;;20.52;65.58
8075;BME280;4080;42.676;23.372;2022-10-16T12:56:03;95931.25;;;20.59;66.25
8075;BME280;4080;42.676;23.372;2022-10-16T12:58:57;95926.53;;;20.65;66.61
8075;BME280;4080;42.676;23.372;2022-10-16T13:01:37;95926.22;;;20.66;66.10
8075;BME280;4080;42.676;23.372;2022-10-16T13:07:11;95939.28;;;20.59;63.94
8075;BME280;4080;42.676;23.372;2022-10-16T13:09:53;95936.28;;;20.52;62.03
8075;BME280;4080;42.676;23.372;2022-10-16T13:12:45;95938.09;;;20.43;62.56
8075;BME280;4080;42.676;23.372;2022-10-16T13:15:24;95941.00;;;20.33;61.99
8075;BME280;4080;42.676;23.372;2022-10-16T13:17:59;95934.69;;;20.29;62.45
8075;BME280;4080;42.676;23.372;2022-10-16T13:20:35;95916.56;;;20.26;62.70
8075;BME280;4080;42.676;23.372;2022-10-16T13:23:13;95888.63;;;19.96;63.14
8075;BME280;4080;42.676;23.372;2022-10-16T13:25:58;95935.00;;;20.27;63.93
8075;BME280;4080;42.676;23.372;2022-10-16T13:28:30;95937.13;;;20.16;65.65
8075;BME280;4080;42.676;23.372;2022-10-16T13:31:00;95841.19;;;19.51;65.69
8075;BME280;4080;42.676;23.372;2022-10-16T13:33:31;95935.50;;;20.07;65.62
8075;BME280;4080;42.676;23.372;2022-10-16T13:35:59;95923.63;;;19.99;65.75